Binghamton, New York
Current Conditions -  °F | °C
As of 4:19 AM on Thursday 27 Nov 2014 (Local Time) from KBGM Reporting Station
Light Snow Light Snow  
Wind Chill: -1°   Ceiling: 700
Heat Index:   Visibility: 2mi
Dew Point: -4°   Wind: 6mph
Humidity: 64%   Direction: 310°NW
Pressure: 29.9"   Gusts: NA
Location:  42.1°N, 75.91°W
Report Text: KBGM 270919Z AUTO 31005KT 2SM -SN BKN007 OVC030 02/M04 A2990 RMK AO2 SNB0856 P0000 T00171044 $
Loading
Personal Weather Stations






























Interactive Weather Map New forecast layout! Learn more

10-Day Weather Forecast

Advertisements
Track Severe Weather on mobile